createdAt,value
2022-09-07T00:00:39.676Z,1.70
2022-09-07T00:01:39.785Z,1.50
2022-09-07T00:02:39.644Z,1.70
2022-09-07T00:03:39.826Z,1.30
2022-09-07T00:04:39.781Z,1.50
2022-09-07T00:05:39.755Z,1.60
2022-09-07T00:06:39.575Z,2.10
2022-09-07T00:07:39.647Z,1.80
2022-09-07T00:08:39.662Z,1.60
2022-09-07T00:09:39.695Z,1.40
2022-09-07T00:10:39.674Z,1.60
2022-09-07T00:11:39.438Z,1.40
2022-09-07T00:12:39.615Z,1.90
2022-09-07T00:13:39.555Z,1.90
2022-09-07T00:14:39.595Z,1.50
2022-09-07T00:15:39.475Z,1.80
2022-09-07T00:16:39.613Z,1.80
2022-09-07T00:17:39.465Z,1.50
2022-09-07T00:18:45.084Z,1.50
2022-09-07T00:19:39.437Z,1.40
2022-09-07T00:20:39.586Z,1.20
2022-09-07T00:21:39.596Z,1.80
2022-09-07T00:22:39.524Z,1.60
2022-09-07T00:23:39.406Z,2.10
2022-09-07T00:24:39.548Z,1.90
2022-09-07T00:25:39.412Z,1.80
2022-09-07T00:26:39.475Z,1.90
2022-09-07T00:27:39.469Z,1.90
2022-09-07T00:28:39.273Z,1.80
2022-09-07T00:29:39.485Z,1.60
2022-09-07T00:30:39.246Z,1.90
2022-09-07T00:31:40.029Z,1.80
2022-09-07T00:32:39.336Z,1.50
2022-09-07T00:33:39.486Z,1.50
2022-09-07T00:34:39.295Z,1.80
2022-09-07T00:35:39.526Z,1.60
2022-09-07T00:36:39.455Z,1.70
2022-09-07T00:37:39.415Z,1.90
2022-09-07T00:38:39.304Z,1.70
2022-09-07T00:39:39.537Z,1.60
2022-09-07T00:40:39.235Z,2.20
2022-09-07T00:41:39.396Z,1.90
2022-09-07T00:42:39.338Z,1.40
2022-09-07T00:43:39.244Z,1.70
2022-09-07T00:44:39.276Z,1.90
2022-09-07T00:45:39.066Z,1.60
2022-09-07T00:46:39.308Z,1.90
2022-09-07T00:47:39.195Z,1.70
2022-09-07T00:48:39.416Z,1.80
2022-09-07T00:49:39.176Z,1.90
2022-09-07T00:50:39.235Z,1.60
2022-09-07T00:51:39.221Z,2.50
2022-09-07T00:52:39.455Z,1.70
2022-09-07T00:53:39.175Z,2.20
2022-09-07T00:54:39.246Z,1.80
2022-09-07T00:55:39.125Z,2.10
2022-09-07T00:56:39.763Z,1.40
2022-09-07T00:57:39.101Z,1.50
2022-09-07T00:58:39.485Z,1.90
2022-09-07T00:59:39.157Z,1.90
2022-09-07T01:00:38.956Z,2.20
2022-09-07T01:01:39.355Z,2.00
2022-09-07T01:02:39.292Z,2.00
2022-09-07T01:03:39.216Z,2.10
2022-09-07T01:04:39.037Z,1.70
2022-09-07T01:05:39.033Z,2.00
2022-09-07T01:06:38.955Z,2.20
2022-09-07T01:07:39.106Z,1.60
2022-09-07T01:08:38.944Z,1.60
2022-09-07T01:09:39.246Z,1.80
2022-09-07T01:10:38.935Z,2.60
2022-09-07T01:11:39.004Z,2.30
2022-09-07T01:12:38.926Z,2.10
2022-09-07T01:13:38.905Z,2.10
2022-09-07T01:14:39.018Z,1.80
2022-09-07T01:15:38.842Z,2.20
2022-09-07T01:16:39.065Z,2.00
2022-09-07T01:17:38.776Z,1.80
2022-09-07T01:18:39.155Z,2.20
2022-09-07T01:19:38.764Z,2.00
2022-09-07T01:20:38.966Z,2.10
2022-09-07T01:21:39.005Z,2.00
2022-09-07T01:22:38.895Z,2.10
2022-09-07T01:23:38.805Z,1.90
2022-09-07T01:24:38.985Z,2.00
2022-09-07T01:25:38.885Z,1.70
2022-09-07T01:26:38.985Z,2.10
2022-09-07T01:27:38.835Z,2.00
2022-09-07T01:28:38.754Z,2.70
2022-09-07T01:29:38.785Z,2.40
2022-09-07T01:30:38.724Z,2.10
2022-09-07T01:31:38.815Z,2.00
2022-09-07T01:32:38.625Z,2.90
2022-09-07T01:33:38.774Z,1.80
2022-09-07T01:34:38.835Z,1.70
2022-09-07T01:35:38.796Z,2.10
2022-09-07T01:36:38.724Z,1.90
2022-09-07T01:37:38.805Z,1.90
2022-09-07T01:38:38.795Z,2.30
2022-09-07T01:39:38.737Z,2.10
2022-09-07T01:40:38.735Z,1.90
2022-09-07T01:41:38.795Z,1.90
2022-09-07T01:42:38.597Z,2.20
2022-09-07T01:43:38.635Z,2.20
2022-09-07T01:44:38.617Z,2.00
2022-09-07T01:45:38.415Z,2.40
2022-09-07T01:46:38.743Z,2.10
2022-09-07T01:47:38.475Z,1.90
2022-09-07T01:48:38.736Z,2.00
2022-09-07T01:49:38.475Z,2.10
2022-09-07T01:50:38.759Z,2.20
2022-09-07T01:51:38.514Z,2.20
2022-09-07T01:52:38.635Z,1.70
2022-09-07T01:53:38.466Z,2.40
2022-09-07T01:54:38.635Z,2.80
2022-09-07T01:55:38.594Z,1.90
2022-09-07T01:56:38.536Z,2.20
2022-09-07T01:57:38.615Z,2.50
2022-09-07T01:58:38.606Z,2.00
2022-09-07T01:59:38.458Z,2.10
2022-09-07T02:00:38.299Z,2.30
2022-09-07T02:01:38.549Z,2.30
2022-09-07T02:02:38.368Z,2.40
2022-09-07T02:03:38.495Z,2.40
2022-09-07T02:04:38.314Z,3.10
2022-09-07T02:05:38.445Z,2.70
2022-09-07T02:06:38.475Z,2.50
2022-09-07T02:07:38.447Z,2.30
2022-09-07T02:08:38.355Z,1.90
2022-09-07T02:09:38.472Z,2.50
2022-09-07T02:10:38.395Z,2.40
2022-09-07T02:11:38.467Z,2.50
2022-09-07T02:12:38.346Z,3.10
2022-09-07T02:13:38.345Z,2.40
2022-09-07T02:14:38.296Z,2.20
2022-09-07T02:15:38.183Z,2.20
2022-09-07T02:16:38.326Z,2.20
2022-09-07T02:17:38.198Z,3.10
2022-09-07T02:18:38.364Z,2.50
2022-09-07T02:19:38.177Z,2.00
2022-09-07T02:20:38.516Z,2.50
2022-09-07T02:21:38.256Z,3.00
2022-09-07T02:22:38.316Z,2.40
2022-09-07T02:23:38.197Z,2.30
2022-09-07T02:24:38.267Z,2.10
2022-09-07T02:25:38.115Z,2.00
2022-09-07T02:26:38.435Z,2.10
2022-09-07T02:27:38.275Z,2.70
2022-09-07T02:28:38.266Z,2.30
2022-09-07T02:29:38.145Z,2.40
2022-09-07T02:30:38.138Z,2.50
2022-09-07T02:31:38.156Z,3.00
2022-09-07T02:32:38.027Z,2.70
2022-09-07T02:33:38.155Z,3.20
2022-09-07T02:34:38.155Z,5.80
2022-09-07T02:35:38.135Z,2.50
2022-09-07T02:36:38.085Z,2.80
2022-09-07T02:37:38.195Z,2.80
2022-09-07T02:38:37.985Z,3.00
2022-09-07T02:39:38.159Z,2.80
2022-09-07T02:40:38.036Z,2.70
2022-09-07T02:41:38.084Z,3.00
2022-09-07T02:42:37.997Z,2.70
2022-09-07T02:43:38.176Z,3.00
2022-09-07T02:44:38.064Z,3.30
2022-09-07T02:45:38.032Z,2.60
2022-09-07T02:46:38.091Z,2.80
2022-09-07T02:47:37.824Z,2.70
2022-09-07T02:48:37.955Z,2.50
2022-09-07T02:49:37.915Z,2.70
2022-09-07T02:50:38.175Z,2.50
2022-09-07T02:51:37.865Z,1.90
2022-09-07T02:52:38.034Z,3.20
2022-09-07T02:53:37.965Z,2.90
2022-09-07T02:54:38.006Z,2.20
2022-09-07T02:55:37.846Z,2.90
2022-09-07T02:56:37.894Z,2.60
2022-09-07T02:57:37.855Z,2.50
2022-09-07T02:58:37.926Z,2.00
2022-09-07T02:59:37.926Z,3.30
2022-09-07T03:00:38.005Z,2.90
2022-09-07T03:01:37.831Z,2.60
2022-09-07T03:02:37.910Z,3.10
2022-09-07T03:03:37.804Z,2.40
2022-09-07T03:04:37.695Z,2.00
2022-09-07T03:05:37.976Z,2.90
2022-09-07T03:06:37.781Z,2.60
2022-09-07T03:07:42.181Z,2.70
2022-09-07T03:08:37.776Z,3.00
2022-09-07T03:09:37.795Z,3.10
2022-09-07T03:10:37.674Z,2.40
2022-09-07T03:11:37.888Z,2.50
2022-09-07T03:12:37.655Z,2.60
2022-09-07T03:13:37.825Z,2.40
2022-09-07T03:14:37.753Z,2.20
2022-09-07T03:15:37.890Z,2.90
2022-09-07T03:16:37.815Z,2.30
2022-09-07T03:17:37.575Z,2.10
2022-09-07T03:18:37.694Z,2.10
2022-09-07T03:19:37.536Z,2.40
2022-09-07T03:20:37.795Z,2.40
2022-09-07T03:21:37.504Z,2.90
2022-09-07T03:22:37.747Z,2.40
2022-09-07T03:23:37.594Z,2.70
2022-09-07T03:24:37.754Z,2.90
2022-09-07T03:25:37.474Z,2.90
2022-09-07T03:26:37.656Z,2.90
2022-09-07T03:27:37.708Z,2.60
2022-09-07T03:28:37.656Z,3.70
2022-09-07T03:29:41.427Z,2.90
2022-09-07T03:30:37.582Z,3.20
2022-09-07T03:31:37.666Z,2.70
2022-09-07T03:32:37.375Z,2.40
2022-09-07T03:33:37.705Z,2.30
2022-09-07T03:34:37.718Z,2.60
2022-09-07T03:35:37.717Z,3.00
2022-09-07T03:36:37.375Z,3.00
2022-09-07T03:37:37.554Z,3.10
2022-09-07T03:38:37.389Z,2.50
2022-09-07T03:39:37.530Z,3.10
2022-09-07T03:40:37.505Z,3.00
2022-09-07T03:41:37.524Z,2.80
2022-09-07T03:42:37.445Z,3.60
2022-09-07T03:43:37.512Z,2.90
2022-09-07T03:44:37.365Z,2.40
2022-09-07T03:45:37.638Z,3.00
2022-09-07T03:46:37.358Z,2.80
2022-09-07T03:47:37.295Z,2.50
2022-09-07T03:48:37.386Z,3.00
2022-09-07T03:49:37.216Z,2.50
2022-09-07T03:50:37.357Z,3.10
2022-09-07T03:51:37.425Z,3.50
2022-09-07T03:52:37.355Z,3.90
2022-09-07T03:53:37.217Z,3.00
2022-09-07T03:54:39.630Z,3.50
2022-09-07T03:55:37.175Z,2.80
2022-09-07T03:56:37.385Z,3.10
2022-09-07T03:57:37.165Z,2.80
2022-09-07T03:58:37.336Z,2.40
2022-09-07T03:59:37.315Z,3.10
2022-09-07T04:00:37.335Z,3.00
2022-09-07T04:01:37.322Z,2.80
2022-09-07T04:02:37.111Z,3.30
2022-09-07T04:03:37.313Z,2.90
2022-09-07T04:04:37.015Z,2.60
2022-09-07T04:05:37.254Z,3.00
2022-09-07T04:06:36.996Z,2.90
2022-09-07T04:07:37.266Z,3.30
2022-09-07T04:08:37.127Z,2.90
2022-09-07T04:09:37.146Z,3.10
2022-09-07T04:10:37.085Z,3.40
2022-09-07T04:11:37.275Z,2.70
2022-09-07T04:12:37.159Z,3.30
2022-09-07T04:13:37.225Z,2.40
2022-09-07T04:14:37.036Z,3.40
2022-09-07T04:15:37.148Z,3.50
2022-09-07T04:16:37.057Z,3.40
2022-09-07T04:17:37.237Z,2.70
2022-09-07T04:18:37.159Z,2.60
2022-09-07T04:19:36.955Z,2.80
2022-09-07T04:20:37.036Z,3.30
2022-09-07T04:21:36.954Z,2.70
2022-09-07T04:22:37.034Z,3.10
2022-09-07T04:23:37.034Z,3.50
2022-09-07T04:24:37.135Z,3.00
2022-09-07T04:25:37.045Z,2.80
2022-09-07T04:26:36.996Z,3.00
2022-09-07T04:27:36.877Z,2.90
2022-09-07T04:28:37.086Z,3.10
2022-09-07T04:29:36.982Z,2.40
2022-09-07T04:30:37.106Z,2.70
2022-09-07T04:31:36.905Z,2.40
2022-09-07T04:32:36.946Z,3.20
2022-09-07T04:33:36.886Z,3.00
2022-09-07T04:34:36.874Z,3.10
2022-09-07T04:35:36.896Z,3.60
2022-09-07T04:36:36.745Z,3.80
2022-09-07T04:37:36.895Z,2.90
2022-09-07T04:38:36.805Z,3.20
2022-09-07T04:39:36.991Z,3.30
2022-09-07T04:40:36.725Z,2.90
2022-09-07T04:41:36.976Z,3.00
2022-09-07T04:42:36.725Z,2.60
2022-09-07T04:43:36.896Z,3.00
2022-09-07T04:44:36.764Z,3.20
2022-09-07T04:45:36.861Z,3.20
2022-09-07T04:46:36.862Z,3.20
2022-09-07T04:47:36.854Z,2.70
2022-09-07T04:48:36.805Z,3.50
2022-09-07T04:49:36.565Z,3.50
2022-09-07T04:50:37.073Z,2.90
2022-09-07T04:51:36.596Z,2.70
2022-09-07T04:52:36.806Z,2.70
2022-09-07T04:53:37.115Z,3.60
2022-09-07T04:54:36.825Z,3.20
2022-09-07T04:55:36.755Z,2.80
2022-09-07T04:56:36.644Z,2.50
2022-09-07T04:57:36.595Z,2.90
2022-09-07T04:58:36.704Z,2.50
2022-09-07T04:59:36.568Z,2.90
2022-09-07T05:00:36.816Z,2.80
2022-09-07T05:01:36.695Z,3.40
2022-09-07T05:02:36.814Z,3.10
2022-09-07T05:03:36.687Z,3.10
2022-09-07T05:04:36.655Z,2.90
2022-09-07T05:05:36.546Z,2.40
2022-09-07T05:06:43.832Z,3.40
2022-09-07T05:07:36.731Z,3.00
2022-09-07T05:08:36.600Z,3.40
2022-09-07T05:09:36.649Z,2.30
2022-09-07T05:10:36.509Z,2.60
2022-09-07T05:11:36.529Z,2.70
2022-09-07T05:12:36.428Z,2.00
2022-09-07T05:13:36.579Z,2.30
2022-09-07T05:14:36.370Z,2.80
2022-09-07T05:15:36.699Z,2.70
2022-09-07T05:16:36.397Z,2.50
2022-09-07T05:17:36.538Z,3.90
2022-09-07T05:18:36.418Z,3.20
2022-09-07T05:19:36.559Z,3.10
2022-09-07T05:20:36.539Z,4.00
2022-09-07T05:21:36.579Z,3.60
2022-09-07T05:22:36.463Z,2.50
2022-09-07T05:23:36.229Z,2.50
2022-09-07T05:24:36.652Z,2.80
2022-09-07T05:25:36.182Z,3.70
2022-09-07T05:26:36.490Z,3.60
2022-09-07T05:27:36.239Z,3.60
2022-09-07T05:28:36.369Z,3.20
2022-09-07T05:31:36.901Z,2.50
2022-09-07T05:32:36.450Z,3.30
2022-09-07T05:34:36.910Z,3.30
2022-09-07T05:35:36.363Z,2.80
2022-09-07T05:36:36.071Z,3.30
2022-09-07T05:37:36.338Z,2.90
2022-09-07T05:38:36.110Z,2.80
2022-09-07T05:39:36.384Z,3.00
2022-09-07T05:40:40.351Z,3.60
2022-09-07T05:41:36.331Z,2.60
2022-09-07T05:42:36.249Z,2.60
2022-09-07T05:43:36.237Z,3.90
2022-09-07T05:45:36.256Z,2.90
2022-09-07T05:46:36.058Z,3.20
2022-09-07T05:47:36.480Z,3.10
2022-09-07T05:48:36.058Z,3.00
2022-09-07T05:49:36.169Z,2.60
2022-09-07T05:50:36.109Z,3.30
2022-09-07T05:51:36.310Z,2.80
2022-09-07T05:52:36.128Z,3.10
2022-09-07T05:53:35.999Z,3.40
2022-09-07T05:54:36.088Z,3.10
2022-09-07T05:55:36.129Z,3.20
2022-09-07T05:56:36.212Z,2.80
2022-09-07T05:57:35.981Z,3.10
2022-09-07T05:58:36.331Z,3.30
2022-09-07T05:59:36.070Z,3.10
2022-09-07T06:00:36.170Z,3.20
2022-09-07T06:01:35.940Z,3.50
2022-09-07T06:02:39.681Z,3.00
2022-09-07T06:03:36.141Z,3.00
2022-09-07T06:04:36.020Z,3.40
2022-09-07T06:05:35.959Z,3.30
2022-09-07T06:06:35.780Z,3.40
2022-09-07T06:07:35.889Z,3.70
2022-09-07T06:08:35.779Z,3.20
2022-09-07T06:09:36.293Z,3.90
2022-09-07T06:11:36.039Z,2.90
2022-09-07T06:12:35.749Z,3.50
2022-09-07T06:13:36.099Z,2.80
2022-09-07T06:14:35.961Z,3.80
2022-09-07T06:15:35.889Z,3.40
2022-09-07T06:16:35.850Z,3.60
2022-09-07T06:17:35.959Z,3.40
2022-09-07T06:18:35.761Z,3.30
2022-09-07T06:19:35.899Z,4.30
2022-09-07T06:20:35.789Z,4.80
2022-09-07T06:21:35.779Z,3.20
2022-09-07T06:22:35.779Z,3.70
2022-09-07T06:23:35.598Z,3.30
2022-09-07T06:24:35.769Z,4.00
2022-09-07T06:25:35.679Z,2.50
2022-09-07T06:26:35.849Z,2.60
2022-09-07T06:27:35.619Z,2.90
2022-09-07T06:28:35.752Z,2.60
2022-09-07T06:29:35.719Z,2.50
2022-09-07T06:30:35.739Z,3.00
2022-09-07T06:31:35.799Z,3.70
2022-09-07T06:32:43.189Z,3.30
2022-09-07T06:33:35.712Z,2.50
2022-09-07T06:34:35.721Z,3.60
2022-09-07T06:35:35.549Z,2.80
2022-09-07T06:36:35.749Z,3.20
2022-09-07T06:37:35.608Z,3.40
2022-09-07T06:38:35.461Z,3.10
2022-09-07T06:39:35.578Z,3.10
2022-09-07T06:40:35.489Z,3.20
2022-09-07T06:42:36.099Z,3.30
2022-09-07T06:43:35.740Z,2.10
2022-09-07T06:44:35.420Z,2.50
2022-09-07T06:45:35.604Z,2.20
2022-09-07T06:47:36.419Z,2.60
2022-09-07T06:48:36.466Z,2.90
2022-09-07T06:49:35.690Z,2.90
2022-09-07T06:50:35.419Z,2.70
2022-09-07T06:51:35.479Z,3.40
2022-09-07T06:53:37.560Z,2.60
2022-09-07T06:55:35.495Z,2.70
2022-09-07T06:56:35.471Z,3.30
2022-09-07T06:57:35.461Z,2.60
2022-09-07T06:58:38.020Z,2.40
2022-09-07T06:59:35.370Z,2.30
2022-09-07T07:00:35.469Z,2.80
2022-09-07T07:01:35.359Z,3.00
2022-09-07T07:02:35.558Z,2.90
2022-09-07T07:03:35.337Z,3.10
2022-09-07T07:04:40.467Z,2.80
2022-09-07T07:05:35.502Z,2.10
2022-09-07T07:06:35.323Z,2.50
2022-09-07T07:07:35.351Z,3.20
2022-09-07T07:08:35.188Z,2.90
2022-09-07T07:09:35.291Z,3.20
2022-09-07T07:10:35.300Z,3.10
2022-09-07T07:11:35.220Z,2.90
2022-09-07T07:13:12.429Z,3.50
2022-09-07T07:14:12.680Z,3.10
2022-09-07T07:15:12.549Z,3.10
2022-09-07T07:16:12.777Z,3.00
2022-09-07T07:17:12.572Z,2.10
2022-09-07T07:18:20.885Z,3.20
2022-09-07T07:19:12.523Z,3.10
2022-09-07T07:20:12.589Z,3.50
2022-09-07T07:21:12.561Z,3.20
2022-09-07T07:22:42.658Z,3.20
2022-09-07T07:23:12.649Z,3.00
2022-09-07T07:24:12.599Z,3.00
2022-09-07T07:25:12.559Z,2.50
2022-09-07T07:26:12.382Z,2.60
2022-09-07T07:27:12.578Z,2.80
2022-09-07T07:29:15.895Z,2.40
2022-09-07T07:30:12.480Z,2.70
2022-09-07T07:31:13.408Z,2.90
2022-09-07T07:32:12.433Z,3.10
2022-09-07T07:33:12.548Z,3.50
2022-09-07T07:34:12.555Z,2.90
2022-09-07T07:35:12.499Z,3.10
2022-09-07T07:36:12.389Z,3.70
2022-09-07T07:37:12.220Z,3.30
2022-09-07T07:42:12.990Z,2.50
2022-09-07T07:43:12.321Z,3.40
2022-09-07T07:44:12.379Z,2.20
2022-09-07T07:46:13.172Z,3.60
2022-09-07T07:47:12.249Z,2.70
2022-09-07T07:48:12.291Z,2.80
2022-09-07T07:49:12.270Z,3.20
2022-09-07T07:51:13.141Z,2.90
2022-09-07T07:54:12.743Z,2.90
2022-09-07T07:56:13.049Z,2.80
2022-09-07T07:57:12.223Z,2.90
2022-09-07T07:58:12.099Z,3.10
2022-09-07T07:59:15.592Z,3.00
2022-09-07T08:00:12.101Z,2.70
2022-09-07T08:01:12.286Z,2.90
2022-09-07T08:02:12.176Z,3.30
2022-09-07T08:03:12.219Z,3.10
2022-09-07T08:04:12.160Z,2.50
2022-09-07T08:05:12.280Z,2.90
2022-09-07T08:06:12.129Z,2.90
2022-09-07T08:07:11.991Z,2.90
2022-09-07T08:08:12.099Z,3.30
2022-09-07T08:09:11.901Z,2.70
2022-09-07T08:10:12.111Z,2.10
2022-09-07T08:11:11.939Z,2.90
2022-09-07T08:12:12.049Z,3.50
2022-09-07T08:13:11.879Z,3.10
2022-09-07T08:14:12.059Z,3.50
2022-09-07T08:15:12.100Z,2.60
2022-09-07T08:16:12.186Z,2.70
2022-09-07T08:17:12.010Z,2.60
2022-09-07T08:18:12.019Z,2.70
2022-09-07T08:19:11.951Z,3.00
2022-09-07T08:20:12.099Z,2.30
2022-09-07T08:21:12.100Z,2.50
2022-09-07T08:22:12.079Z,2.60
2022-09-07T08:23:12.128Z,3.40
2022-09-07T08:24:11.882Z,3.30
2022-09-07T08:25:11.899Z,2.80
2022-09-07T08:26:11.722Z,3.00
2022-09-07T08:27:12.089Z,3.00
2022-09-07T08:28:11.722Z,2.50
2022-09-07T08:29:11.864Z,3.00
2022-09-07T08:30:11.899Z,3.10
2022-09-07T08:31:12.094Z,3.00
2022-09-07T08:32:11.939Z,2.80
2022-09-07T08:33:11.919Z,2.70
2022-09-07T08:34:11.811Z,2.30
2022-09-07T08:35:11.979Z,2.90
2022-09-07T08:36:11.812Z,2.70
2022-09-07T08:37:11.839Z,2.30
2022-09-07T08:38:11.853Z,3.10
2022-09-07T08:39:11.619Z,2.90
2022-09-07T08:40:11.928Z,2.90
2022-09-07T08:41:11.589Z,2.60
2022-09-07T08:42:11.879Z,2.90
2022-09-07T08:43:11.579Z,3.30
2022-09-07T08:44:11.858Z,2.80
2022-09-07T08:45:11.679Z,2.40
2022-09-07T08:46:11.696Z,2.20
2022-09-07T08:47:11.919Z,2.40
2022-09-07T08:48:11.868Z,2.40
2022-09-07T08:49:11.659Z,2.50
2022-09-07T08:50:11.673Z,3.00
2022-09-07T08:51:11.579Z,2.80
2022-09-07T08:52:11.849Z,2.40
2022-09-07T08:53:11.920Z,3.00
2022-09-07T08:54:11.448Z,2.40
2022-09-07T08:55:11.578Z,2.90
2022-09-07T08:56:11.398Z,3.40
2022-09-07T08:57:27.003Z,2.50
2022-09-07T08:58:22.192Z,3.00
2022-09-07T08:59:12.120Z,3.20
2022-09-07T09:00:11.488Z,2.50
2022-09-07T09:02:28.367Z,2.30
2022-09-07T09:04:15.995Z,2.70
2022-09-07T09:05:19.361Z,2.80
2022-09-07T09:06:12.030Z,2.40
2022-09-07T09:07:11.681Z,2.20
2022-09-07T09:08:11.629Z,2.80
2022-09-07T09:09:11.519Z,2.80
2022-09-07T09:10:11.433Z,2.30
2022-09-07T09:11:11.249Z,2.50
2022-09-07T09:12:11.389Z,2.90
2022-09-07T09:13:11.361Z,2.10
2022-09-07T09:14:11.409Z,2.30
2022-09-07T09:15:11.319Z,2.80
2022-09-07T09:16:11.522Z,2.10
2022-09-07T09:17:11.369Z,3.10
2022-09-07T09:18:14.413Z,2.50
2022-09-07T09:19:11.450Z,3.40
2022-09-07T09:20:11.500Z,2.60
2022-09-07T09:21:11.309Z,3.00
2022-09-07T09:22:11.501Z,2.30
2022-09-07T09:23:11.321Z,2.10
2022-09-07T09:24:11.358Z,2.30
2022-09-07T09:25:11.310Z,2.00
2022-09-07T09:26:11.130Z,2.50
2022-09-07T09:27:11.299Z,2.80
2022-09-07T09:28:11.220Z,2.30
2022-09-07T09:29:11.359Z,2.70
2022-09-07T09:30:11.189Z,3.00
2022-09-07T09:31:11.510Z,2.60
2022-09-07T09:32:11.140Z,2.20
2022-09-07T09:33:11.399Z,2.30
2022-09-07T09:34:11.161Z,2.10
2022-09-07T09:35:11.340Z,2.00
2022-09-07T09:36:11.250Z,2.60
2022-09-07T09:37:11.329Z,2.30
2022-09-07T09:38:11.220Z,2.30
2022-09-07T09:39:11.218Z,2.10
2022-09-07T09:40:11.216Z,2.50
2022-09-07T09:41:11.029Z,2.20
2022-09-07T09:42:11.118Z,2.20
2022-09-07T09:43:10.979Z,2.60
2022-09-07T09:44:11.199Z,2.50
2022-09-07T09:45:11.070Z,2.70
2022-09-07T09:46:12.760Z,3.00
2022-09-07T09:48:11.529Z,2.40
2022-09-07T09:49:10.959Z,2.40
2022-09-07T09:50:11.375Z,2.50
2022-09-07T09:53:11.545Z,2.80
2022-09-07T09:54:11.050Z,2.20
2022-09-07T09:55:33.269Z,2.20
2022-09-07T09:56:11.916Z,2.20
2022-09-07T09:57:11.358Z,2.10
2022-09-07T10:00:14.854Z,1.80
2022-09-07T10:01:27.996Z,2.30
2022-09-07T10:04:14.606Z,2.20
2022-09-07T10:05:10.949Z,2.00
2022-09-07T10:06:10.799Z,2.90
2022-09-07T10:07:12.199Z,2.40
2022-09-07T10:08:10.879Z,2.50
2022-09-07T10:09:10.880Z,2.60
2022-09-07T10:10:10.889Z,2.60
2022-09-07T10:11:10.989Z,2.80
2022-09-07T10:12:10.959Z,2.80
2022-09-07T10:13:10.649Z,2.30
2022-09-07T10:14:11.244Z,3.30
2022-09-07T10:15:10.680Z,2.70
2022-09-07T10:16:11.119Z,2.70
2022-09-07T10:17:10.629Z,2.10
2022-09-07T10:18:10.880Z,2.30
2022-09-07T10:19:10.729Z,2.30
2022-09-07T10:20:10.972Z,1.70
2022-09-07T10:21:11.518Z,3.10
2022-09-07T10:22:10.799Z,2.00
2022-09-07T10:23:10.859Z,3.30
2022-09-07T10:24:10.759Z,2.30
2022-09-07T10:25:10.633Z,2.60
2022-09-07T10:26:10.758Z,2.10
2022-09-07T10:27:10.659Z,2.30
2022-09-07T10:28:10.761Z,2.70
2022-09-07T10:29:11.273Z,2.10
2022-09-07T10:30:10.602Z,2.30
2022-09-07T10:31:14.825Z,2.30
2022-09-07T10:32:10.469Z,2.40
2022-09-07T10:33:10.799Z,2.20
2022-09-07T10:34:26.216Z,2.30
2022-09-07T10:35:10.768Z,2.30
2022-09-07T10:36:10.839Z,2.60
2022-09-07T10:37:11.210Z,2.00
2022-09-07T10:38:10.818Z,2.40
2022-09-07T10:39:10.689Z,2.40
2022-09-07T10:40:10.899Z,2.50
2022-09-07T10:41:11.193Z,2.00
2022-09-07T10:42:10.881Z,2.40
2022-09-07T10:43:26.029Z,2.60
2022-09-07T10:44:10.469Z,2.70
2022-09-07T10:45:11.510Z,2.00
2022-09-07T10:46:10.624Z,2.20
2022-09-07T10:47:10.422Z,2.50
2022-09-07T10:48:10.601Z,2.10
2022-09-07T10:49:10.350Z,1.90
2022-09-07T10:50:26.148Z,2.00
2022-09-07T10:51:14.234Z,2.60
2022-09-07T10:52:10.589Z,2.10
2022-09-07T10:53:39.137Z,2.40
2022-09-07T10:55:10.609Z,2.00
2022-09-07T10:56:10.568Z,2.10
2022-09-07T10:57:10.380Z,2.20
2022-09-07T10:58:11.316Z,2.10
2022-09-07T10:59:11.037Z,2.20
2022-09-07T11:00:10.798Z,2.30
2022-09-07T11:01:10.778Z,2.40
2022-09-07T11:02:10.218Z,1.80
2022-09-07T11:03:26.070Z,2.00
2022-09-07T11:04:10.259Z,1.90
2022-09-07T11:05:10.307Z,2.40
2022-09-07T11:06:10.327Z,2.20
2022-09-07T11:07:14.934Z,2.00
2022-09-07T11:08:10.217Z,3.20
2022-09-07T11:09:18.530Z,2.10
2022-09-07T11:10:10.207Z,1.80
2022-09-07T11:11:10.371Z,2.00
2022-09-07T11:12:10.307Z,2.20
2022-09-07T11:13:10.311Z,1.70
2022-09-07T11:14:13.432Z,2.40
2022-09-07T11:15:10.507Z,2.20
2022-09-07T11:16:50.405Z,2.30
2022-09-07T11:17:10.845Z,1.90
2022-09-07T11:18:10.137Z,1.80
2022-09-07T11:20:11.018Z,2.40
2022-09-07T11:21:10.327Z,2.60
2022-09-07T11:22:10.148Z,2.10
2022-09-07T11:23:11.329Z,1.90
2022-09-07T11:24:10.209Z,2.30
2022-09-07T11:26:11.209Z,2.30
2022-09-07T11:27:09.988Z,2.20
2022-09-07T11:28:10.187Z,1.90
2022-09-07T11:30:10.568Z,1.50
2022-09-07T11:31:10.233Z,1.90
2022-09-07T11:32:10.206Z,2.30
2022-09-07T11:33:10.019Z,3.20
2022-09-07T11:34:25.421Z,2.50
2022-09-07T11:35:10.518Z,2.30
2022-09-07T11:36:12.252Z,1.80
2022-09-07T11:37:09.977Z,1.70
2022-09-07T11:38:10.440Z,2.20
2022-09-07T11:39:10.088Z,1.70
2022-09-07T11:40:09.891Z,2.00
2022-09-07T11:41:10.011Z,1.80
2022-09-07T11:43:11.553Z,1.90
2022-09-07T11:44:09.848Z,2.50
2022-09-07T11:45:09.938Z,2.00
2022-09-07T11:46:09.952Z,2.30
2022-09-07T11:47:09.878Z,1.90
2022-09-07T11:48:10.859Z,2.10
2022-09-07T11:49:09.787Z,2.40
2022-09-07T11:50:09.849Z,2.00
2022-09-07T11:51:09.746Z,2.80
2022-09-07T11:52:09.907Z,2.00
2022-09-07T11:53:10.087Z,2.50
2022-09-07T11:54:10.087Z,2.00
2022-09-07T11:55:09.727Z,2.10
2022-09-07T11:56:10.008Z,2.10
2022-09-07T11:57:09.672Z,2.40
2022-09-07T11:58:09.786Z,1.70
2022-09-07T11:59:09.658Z,2.30
2022-09-07T12:00:09.847Z,2.20
2022-09-07T12:01:09.731Z,2.00
2022-09-07T12:02:09.786Z,2.10
2022-09-07T12:03:09.720Z,2.90
2022-09-07T12:04:14.590Z,1.90
2022-09-07T12:05:09.708Z,2.30
2022-09-07T12:06:09.659Z,2.90
2022-09-07T12:07:09.729Z,1.80
2022-09-07T12:08:09.517Z,2.00
2022-09-07T12:09:09.727Z,2.20
2022-09-07T12:10:09.527Z,2.30
2022-09-07T12:11:09.657Z,1.70
2022-09-07T12:12:09.913Z,1.90
2022-09-07T12:13:09.765Z,1.60
2022-09-07T12:14:09.497Z,2.00
2022-09-07T12:15:09.757Z,2.40
2022-09-07T12:16:09.549Z,1.90
2022-09-07T12:17:09.577Z,1.90
2022-09-07T12:18:09.617Z,2.00
2022-09-07T12:19:09.908Z,1.70
2022-09-07T12:20:09.564Z,2.40
2022-09-07T12:21:09.378Z,1.90
2022-09-07T12:22:09.540Z,2.40
2022-09-07T12:23:09.468Z,2.00
2022-09-07T12:24:09.657Z,2.10
2022-09-07T12:25:09.367Z,2.10
2022-09-07T12:26:09.548Z,2.10
2022-09-07T12:27:09.398Z,1.80
2022-09-07T12:28:09.558Z,2.30
2022-09-07T12:29:09.578Z,2.00
2022-09-07T12:30:09.508Z,1.50
2022-09-07T12:31:09.351Z,1.70
2022-09-07T12:33:10.170Z,1.80
2022-09-07T12:34:09.438Z,1.50
2022-09-07T12:35:09.447Z,1.50
2022-09-07T12:36:09.418Z,2.40
2022-09-07T12:37:12.459Z,2.10
2022-09-07T12:38:09.187Z,2.00
2022-09-07T12:39:09.570Z,1.90
2022-09-07T12:40:09.352Z,1.40
2022-09-07T12:41:09.328Z,1.90
2022-09-07T12:43:10.145Z,1.80
2022-09-07T12:44:09.298Z,1.70
2022-09-07T12:45:09.359Z,2.10
2022-09-07T12:46:09.263Z,1.90
2022-09-07T12:47:09.390Z,1.80
2022-09-07T12:48:09.158Z,1.90
2022-09-07T12:49:09.418Z,2.00
2022-09-07T12:50:10.083Z,1.70
2022-09-07T12:51:08.998Z,2.00
2022-09-07T12:52:15.660Z,1.80
2022-09-07T12:53:09.139Z,1.60
2022-09-07T12:54:09.228Z,1.90
2022-09-07T12:55:27.544Z,1.70
2022-09-07T12:56:17.206Z,1.40
2022-09-07T12:58:09.707Z,1.60
2022-09-07T12:59:17.477Z,1.90
2022-09-07T13:00:09.238Z,1.90
2022-09-07T13:01:09.499Z,2.00
2022-09-07T13:02:09.317Z,1.90
2022-09-07T13:03:49.528Z,2.40
2022-09-07T13:04:09.817Z,2.30
2022-09-07T13:05:08.481Z,2.00
2022-09-07T13:06:09.740Z,1.70
2022-09-07T13:07:09.028Z,1.70
2022-09-07T13:08:10.196Z,1.90
2022-09-07T13:09:09.040Z,1.80
2022-09-07T13:10:08.863Z,1.80
2022-09-07T13:11:09.139Z,1.70
2022-09-07T13:12:09.035Z,2.10
2022-09-07T13:13:09.141Z,2.20
2022-09-07T13:14:09.829Z,1.90
2022-09-07T13:15:14.592Z,1.80
2022-09-07T13:16:08.908Z,1.80
2022-09-07T13:17:16.494Z,1.60
2022-09-07T13:18:09.473Z,2.00
2022-09-07T13:19:08.948Z,1.60
2022-09-07T13:20:08.882Z,2.00
2022-09-07T13:21:08.977Z,1.50
2022-09-07T13:22:08.848Z,2.00
2022-09-07T13:23:08.778Z,1.70
2022-09-07T13:25:09.588Z,1.60
2022-09-07T13:26:08.859Z,2.10
2022-09-07T13:27:08.697Z,1.40
2022-09-07T13:28:08.886Z,1.90
2022-09-07T13:29:08.766Z,2.20
2022-09-07T13:30:09.321Z,2.10
2022-09-07T13:31:08.969Z,2.40
2022-09-07T13:32:08.807Z,1.90
2022-09-07T13:33:09.030Z,1.60
2022-09-07T13:34:08.008Z,2.20
2022-09-07T13:35:09.628Z,1.90
2022-09-07T13:36:09.418Z,1.20
2022-09-07T13:37:08.758Z,1.80
2022-09-07T13:38:09.528Z,1.70
2022-09-07T13:39:08.727Z,1.50
2022-09-07T13:40:08.582Z,1.70
2022-09-07T13:41:08.758Z,2.00
2022-09-07T13:42:08.616Z,1.30
2022-09-07T13:43:08.977Z,1.50
2022-09-07T13:44:08.587Z,2.10
2022-09-07T13:45:08.807Z,1.70
2022-09-07T13:46:08.138Z,1.50
2022-09-07T13:47:09.090Z,1.60
2022-09-07T13:48:08.549Z,1.60
2022-09-07T13:49:08.768Z,1.50
2022-09-07T13:50:08.547Z,1.50
2022-09-07T13:51:08.719Z,1.90
2022-09-07T13:52:08.648Z,1.50
2022-09-07T13:53:08.428Z,1.70
2022-09-07T13:54:08.766Z,1.40
2022-09-07T13:55:08.996Z,2.00
2022-09-07T13:56:08.558Z,1.70